Maccoa — 5BTE2 — position and weather

sailwx.info

Track history (hours):
 
Tides and Currents Weather Stations Pressure Air Temp Water Temp Dewpoint Dewpoint Depression Visibility Wind Speed Wind Dir Waves Ship Positions

Maccoa

Last reported at 2017-Nov-23 14:17 UTC. Time now 2017-Dec-18 05:11 UTC.
Position N 27°42' W 082°33'.
Warning: this ship's position is 24 days out of date.

Length 185 m; draft 8 m.

Type: Cargo ship. MMSI: 212340000.

Date/timePositionNaut miles runAvg speedWind from/ knotsBaromVisibWave heightAir tempDewpointWater temp
2017-Nov-23 14:17N 27°42' W 082°33'312.9
2017-Nov-23 14:01N 27°45' W 082°32'7 0.6
2017-Nov-23 02:40N 27°48' W 082°25'0 1.8
2017-Nov-23 02:29N 27°48' W 082°25'2 3.9
2017-Nov-23 02:00N 27°50' W 082°27'3 5.9
2017-Nov-23 01:30N 27°51' W 082°24'0 0.8
2017-Nov-23 00:55N 27°51' W 082°24'0 0.0
2017-Nov-23 00:22N 27°51' W 082°24'0 0.0
2017-Nov-22 23:58N 27°51' W 082°24'0 0.0
2017-Nov-22 23:27N 27°51' W 082°24'  
Track history (hours):
 
Tides and Currents Weather Stations Pressure Air Temp Water Temp Dewpoint Dewpoint Depression Visibility Wind Speed Wind Dir Waves Ship Positions

Maccoa

Last reported at 2017-Nov-23 14:17 UTC. Time now 2017-Dec-18 05:11 UTC.
Position N 27°42' W 082°33'.
Warning: this ship's position is 24 days out of date.

Length 185 m; draft 8 m.

Type: Cargo ship. MMSI: 212340000.

Date/timePositionNaut miles runAvg speedWind from/ knotsBaromVisibWave heightAir tempDewpointWater temp
2017-Nov-23 14:17N 27°42' W 082°33'312.9
2017-Nov-23 14:01N 27°45' W 082°32'7 0.6
2017-Nov-23 02:40N 27°48' W 082°25'0 1.8
2017-Nov-23 02:29N 27°48' W 082°25'2 3.9
2017-Nov-23 02:00N 27°50' W 082°27'3 5.9
2017-Nov-23 01:30N 27°51' W 082°24'0 0.8
2017-Nov-23 00:55N 27°51' W 082°24'0 0.0
2017-Nov-23 00:22N 27°51' W 082°24'0 0.0
2017-Nov-22 23:58N 27°51' W 082°24'0 0.0
2017-Nov-22 23:27N 27°51' W 082°24'  

Dump ship's entire track history